Hlavní strana
METAR-TAF:

METAR-TAF

Letiště :

Ropná věž

Norne Fpso, Norsko

zeměpisná šířka: 66-01-48N, zeměpisná délka: 008-04-48E, výška: 10 m

Aktuální stav počasí

Zpráva byla vytvořena před 35 minutami, v 13:20 UTC
Východní vítr 12 kt
Teplota 6°C
Vlhkost vzduchu 70%
Tlak 1021 hPa
Viditelnost 10 km a více
Žádná oblačnost pod 1500 m, nevyskytují se cumulonimby.

METAR: ENNE 211320Z 09012KT CAVOK 06/01 Q1021 W///S4

Čas: 14:55 (13:55 UTC)

Předpověď počasí

Zpráva byla vytvořena před 2 hodinami a 55 minutami, v 11:00 UTC
Předpověď platná od 21 v 12 UTC do 21 v 18 UTC
Jihojihovýchodní vítr 15 kt
Viditelnost 10 km a více
Polojasno ve výšce 3000 ft
Změna
od 21 v 15 UTC do 21 v 17 UTC
Jihovýchodní vítr 25 kt

TAF: ENNE 211100Z 2112/2118 15015KT 9999 SCT030 BECMG 2115/2117 13025KT

Stav a předpovědi počasí z více než 4 000 letišť (zprávy METAR a TAF).

Červené a žluté tečky na mapě představují dostupné meteorologické stanice.

Když kurzor umístíte na tečku, zobrazí se název stanice.

Pak kliknutím zobrazíte stav a předpověď počasí.

Chcete-li změnit mapu, kliknutím na zelené tlačítko se znaménkem +mapu přiblížíte, kliknutím na zelené tlačítko se znaménkem – mapu oddálíte a kliknutím na zelené šipky přejdete na sousední mapy.


METAR-TAF: